Time;durP1;ratioP1;P1;durP2;ratioP2;P2;SDS_P1;SDS_P2;PMS_P1;PMS_P2;Temp;Humidity;BMP_temperature;BMP_pressure;BME280_temperature;BME280_humidity;BME280_pressure;Samples;Min_cycle;Max_cycle;Signal;HPM_P1;HPM_P2
2022/04/14 00:00:37;;;;;;;5.63;4.15;;;7.90;99.90;;;;;;4162422;28;20083;-43
2022/04/14 00:02:39;;;;;;;3.58;3.38;;;7.80;99.90;;;;;;4166295;28;20053;-43
2022/04/14 00:04:41;;;;;;;7.68;3.70;;;7.80;99.90;;;;;;4161076;28;20045;-44
2022/04/14 00:06:43;;;;;;;5.10;4.78;;;7.60;99.90;;;;;;4161768;28;20041;-43
2022/04/14 00:08:45;;;;;;;5.47;5.00;;;7.40;99.90;;;;;;4165564;28;20076;-44
2022/04/14 00:10:47;;;;;;;4.43;4.00;;;7.30;99.90;;;;;;4161131;28;20937;-44
2022/04/14 00:12:49;;;;;;;3.75;3.63;;;7.20;99.90;;;;;;4161777;28;20053;-44
2022/04/14 00:14:51;;;;;;;19.92;11.20;;;7.10;99.90;;;;;;4166730;28;20041;-44
2022/04/14 00:16:53;;;;;;;7.45;6.85;;;7.20;99.90;;;;;;4167168;28;20041;-45
2022/04/14 00:18:55;;;;;;;5.45;5.05;;;7.30;99.90;;;;;;4161303;28;20049;-44
2022/04/14 00:20:57;;;;;;;4.00;3.88;;;7.40;99.90;;;;;;4160951;28;20148;-44
2022/04/14 00:22:59;;;;;;;4.72;4.30;;;7.30;99.90;;;;;;4160759;28;20041;-44
2022/04/14 00:25:03;;;;;;;;;;;7.20;99.90;;;;;;4161225;28;20103;-44
2022/04/14 00:27:05;;;;;;;4.15;3.88;;;7.20;99.90;;;;;;4161158;28;19932;-43
2022/04/14 00:29:07;;;;;;;5.57;5.35;;;7.10;99.90;;;;;;4160611;28;20119;-44
2022/04/14 00:31:09;;;;;;;5.25;4.82;;;7.00;99.90;;;;;;4160806;28;20042;-44
2022/04/14 00:33:11;;;;;;;4.18;4.05;;;6.90;99.90;;;;;;4160787;28;20046;-44
2022/04/14 00:35:13;;;;;;;3.72;3.53;;;6.70;99.90;;;;;;4160848;28;20524;-43
2022/04/14 00:37:17;;;;;;;3.90;3.80;;;6.80;99.90;;;;;;4168541;28;20079;-43
2022/04/14 00:39:19;;;;;;;3.50;3.40;;;6.80;99.90;;;;;;4171439;28;20262;-44
2022/04/14 00:41:21;;;;;;;3.90;3.80;;;6.70;99.90;;;;;;4160526;28;20516;-45
2022/04/14 00:43:34;;;;;;;3.78;3.58;;;6.80;99.90;;;;;;4160742;28;20459;-44
2022/04/14 00:45:36;;;;;;;4.50;4.40;;;6.70;99.90;;;;;;4160592;28;20045;-44
2022/04/14 00:47:39;;;;;;;4.43;4.32;;;6.60;99.90;;;;;;4160585;28;20048;-44
2022/04/14 00:49:41;;;;;;;3.63;3.53;;;6.60;99.90;;;;;;4163297;28;20077;-45
2022/04/14 00:51:43;;;;;;;3.47;3.28;;;6.50;99.90;;;;;;4162691;28;20460;-45
2022/04/14 00:53:45;;;;;;;2.92;2.83;;;6.50;99.90;;;;;;4171289;28;20512;-45
2022/04/14 00:55:48;;;;;;;3.45;3.28;;;6.70;99.90;;;;;;4168063;28;21096;-43
2022/04/14 00:57:50;;;;;;;18.42;2.92;;;6.70;99.90;;;;;;4160833;28;20057;-45
2022/04/14 00:59:52;;;;;;;2.90;2.40;;;6.90;99.90;;;;;;4160188;28;20091;-44
2022/04/14 01:01:55;;;;;;;2.45;2.45;;;6.90;99.90;;;;;;4160431;28;20046;-44
2022/04/14 01:03:59;;;;;;;2.58;2.45;;;6.90;99.90;;;;;;4160459;28;20041;-44
2022/04/14 01:06:03;;;;;;;1.77;1.67;;;7.00;99.90;;;;;;4160142;28;20037;-43
2022/04/14 01:08:07;;;;;;;1.73;1.63;;;7.00;99.90;;;;;;4175598;28;20102;-44
2022/04/14 01:10:10;;;;;;;1.60;1.60;;;6.90;99.90;;;;;;4160618;28;20095;-46
2022/04/14 01:12:13;;;;;;;2.65;2.53;;;7.00;99.90;;;;;;4164207;28;20065;-43
2022/04/14 01:14:34;;;;;;;;;;;7.00;99.90;;;;;;4160860;28;20045;-44
2022/04/14 01:16:36;;;;;;;2.50;2.30;;;7.00;99.90;;;;;;4160417;28;19925;-45
2022/04/14 01:18:38;;;;;;;2.75;2.35;;;6.90;99.90;;;;;;4163961;28;20054;-46
2022/04/14 01:20:43;;;;;;;2.15;2.15;;;6.80;99.90;;;;;;4160158;28;20070;-44
2022/04/14 01:23:04;;;;;;;2.60;2.50;;;6.80;99.90;;;;;;4160380;28;20045;-44
2022/04/14 01:25:07;;;;;;;2.78;2.47;;;6.80;99.90;;;;;;4160247;28;20049;-46
2022/04/14 01:27:09;;;;;;;2.45;2.35;;;6.80;99.90;;;;;;4160460;28;20049;-43
2022/04/14 01:29:25;;;;;;;1.92;1.92;;;6.70;99.90;;;;;;4160199;28;20048;-44
2022/04/14 01:31:28;;;;;;;2.60;2.55;;;6.60;99.90;;;;;;4159994;28;20045;-43
2022/04/14 01:33:30;;;;;;;4.38;3.13;;;6.60;99.90;;;;;;4160058;28;20050;-45
2022/04/14 01:35:32;;;;;;;2.70;2.55;;;6.50;99.90;;;;;;4173916;28;20094;-46
2022/04/14 01:37:34;;;;;;;3.13;3.03;;;6.50;99.90;;;;;;4164340;28;20037;-43
2022/04/14 01:39:36;;;;;;;3.10;2.65;;;6.50;99.90;;;;;;4158894;28;20068;-43
2022/04/14 01:41:39;;;;;;;2.78;2.72;;;6.60;99.90;;;;;;4160121;28;20540;-44
2022/04/14 01:43:43;;;;;;;2.65;2.45;;;6.60;99.90;;;;;;4159959;28;20120;-44
2022/04/14 01:45:50;;;;;;;3.13;2.92;;;6.60;99.90;;;;;;4159799;28;20046;-44
2022/04/14 01:47:53;;;;;;;3.00;2.90;;;6.60;99.90;;;;;;4159739;28;20346;-43
2022/04/14 01:49:55;;;;;;;1.90;1.90;;;6.50;99.90;;;;;;4162660;28;20098;-44
2022/04/14 01:51:57;;;;;;;2.13;2.03;;;6.40;99.90;;;;;;4161381;28;20041;-44
2022/04/14 01:53:59;;;;;;;2.47;2.47;;;6.30;99.90;;;;;;4141519;28;20049;-43
2022/04/14 01:56:01;;;;;;;2.80;2.70;;;6.30;99.90;;;;;;4166022;28;20077;-44
2022/04/14 01:58:03;;;;;;;3.50;3.40;;;6.40;99.90;;;;;;4163072;28;20398;-43
2022/04/14 02:00:07;;;;;;;3.33;2.92;;;6.40;99.90;;;;;;4163260;28;20045;-44
2022/04/14 02:02:09;;;;;;;2.75;2.55;;;6.30;99.90;;;;;;4162957;28;20045;-43
2022/04/14 02:04:11;;;;;;;4.00;3.80;;;6.20;99.90;;;;;;4163236;28;20045;-44
2022/04/14 02:06:14;;;;;;;3.63;3.53;;;6.00;99.90;;;;;;4163370;28;20033;-46
2022/04/14 02:08:16;;;;;;;;;;;5.80;99.90;;;;;;4172498;28;20048;-44
2022/04/14 02:10:19;;;;;;;4.28;4.18;;;5.80;99.90;;;;;;4162984;28;19924;-43
2022/04/14 02:12:21;;;;;;;4.07;3.97;;;5.80;99.90;;;;;;4171656;28;20049;-43
2022/04/14 02:14:23;;;;;;;3.95;3.72;;;5.80;99.90;;;;;;4163279;28;20494;-43
2022/04/14 02:16:25;;;;;;;3.42;3.33;;;5.80;99.90;;;;;;4172547;28;20033;-45
2022/04/14 02:18:27;;;;;;;3.83;3.72;;;5.70;99.90;;;;;;4169834;28;20096;-44
2022/04/14 02:20:29;;;;;;;3.30;3.30;;;5.70;99.90;;;;;;4162791;28;20445;-43
2022/04/14 02:22:38;;;;;;;2.35;2.35;;;5.80;99.90;;;;;;4162743;28;20397;-44
2022/04/14 02:24:40;;;;;;;2.25;2.25;;;5.80;99.90;;;;;;4162577;28;20402;-44
2022/04/14 02:26:42;;;;;;;3.35;3.25;;;5.80;99.90;;;;;;4162803;28;20493;-45
2022/04/14 02:28:44;;;;;;;3.83;3.72;;;5.80;99.90;;;;;;4162938;28;20042;-46
2022/04/14 02:30:47;;;;;;;3.92;3.78;;;5.70;99.90;;;;;;4162820;28;20092;-44
2022/04/14 02:32:49;;;;;;;2.92;2.92;;;5.70;99.90;;;;;;4162369;28;20384;-44
2022/04/14 02:34:51;;;;;;;2.90;2.88;;;5.70;99.90;;;;;;4162503;28;20030;-45
2022/04/14 02:36:54;;;;;;;3.67;3.47;;;5.70;99.90;;;;;;4162365;28;20041;-43
2022/04/14 02:38:56;;;;;;;3.30;3.20;;;5.60;99.90;;;;;;4162616;28;20053;-45
2022/04/14 02:40:58;;;;;;;3.45;3.28;;;5.60;99.90;;;;;;4162614;28;20107;-45
2022/04/14 02:43:00;;;;;;;3.65;3.33;;;5.60;99.90;;;;;;4162741;28;20079;-44
2022/04/14 02:45:26;;;;;;;4.70;4.43;;;5.50;99.90;;;;;;4161978;28;20071;-43
2022/04/14 02:47:28;;;;;;;3.83;3.47;;;5.50;99.90;;;;;;4162474;28;20254;-43
2022/04/14 02:49:30;;;;;;;4.57;4.30;;;5.40;99.90;;;;;;4164527;28;20058;-43
2022/04/14 02:51:32;;;;;;;2.83;2.72;;;5.30;99.90;;;;;;4162276;28;20037;-43
2022/04/14 02:53:34;;;;;;;4.05;2.45;;;5.40;99.90;;;;;;4162333;28;20045;-44
2022/04/14 02:55:37;;;;;;;3.95;3.80;;;5.50;99.90;;;;;;4162095;28;20053;-44
2022/04/14 02:57:41;;;;;;;2.72;2.72;;;5.40;99.90;;;;;;4161937;28;20103;-44
2022/04/14 02:59:43;;;;;;;3.22;3.13;;;5.40;99.90;;;;;;4162265;28;20061;-44
2022/04/14 03:01:45;;;;;;;3.90;3.80;;;5.40;99.90;;;;;;4162040;28;20111;-42
2022/04/14 03:03:47;;;;;;;3.85;3.70;;;5.30;99.90;;;;;;4160596;28;20399;-45
2022/04/14 03:05:50;;;;;;;2.83;2.83;;;5.30;99.90;;;;;;4162596;28;20068;-43
2022/04/14 03:07:52;;;;;;;3.10;3.00;;;5.30;99.90;;;;;;4168495;28;20045;-43
2022/04/14 03:09:55;;;;;;;3.33;3.22;;;5.30;99.90;;;;;;4162762;28;20053;-44
2022/04/14 03:11:57;;;;;;;3.70;3.50;;;5.30;99.90;;;;;;4170209;28;20045;-44
2022/04/14 03:13:59;;;;;;;2.65;2.35;;;5.30;99.90;;;;;;4177100;28;20041;-45
2022/04/14 03:16:01;;;;;;;2.92;2.80;;;5.30;99.90;;;;;;4170350;28;20409;-44
2022/04/14 03:18:03;;;;;;;3.20;3.00;;;5.10;99.90;;;;;;4162204;28;20084;-43
2022/04/14 03:20:06;;;;;;;2.53;2.53;;;5.20;99.90;;;;;;4162050;28;20034;-43
2022/04/14 03:22:08;;;;;;;2.70;2.50;;;5.20;99.90;;;;;;4161773;28;20041;-43
2022/04/14 03:24:10;;;;;;;4.30;4.03;;;5.30;99.90;;;;;;4161843;28;20038;-44
2022/04/14 03:26:12;;;;;;;2.20;2.15;;;5.20;99.90;;;;;;4161980;28;20301;-44
2022/04/14 03:28:26;;;;;;;3.10;3.00;;;5.30;99.90;;;;;;4161891;28;20478;-44
2022/04/14 03:30:32;;;;;;;2.95;2.85;;;5.30;99.90;;;;;;4161633;28;20046;-44
2022/04/14 03:32:45;;;;;;;2.97;2.92;;;5.30;99.90;;;;;;4161640;28;20037;-44
2022/04/14 03:34:48;;;;;;;2.83;2.78;;;5.30;99.90;;;;;;4160428;28;20095;-44
2022/04/14 03:36:50;;;;;;;3.08;2.95;;;5.30;99.90;;;;;;4161614;28;20459;-44
2022/04/14 03:38:52;;;;;;;2.13;1.90;;;5.20;99.90;;;;;;4161182;28;20049;-44
2022/04/14 03:40:54;;;;;;;2.83;2.65;;;5.20;99.90;;;;;;4161898;28;20516;-45
2022/04/14 03:42:56;;;;;;;2.97;2.85;;;5.10;99.90;;;;;;4161509;28;20519;-44
2022/04/14 03:44:58;;;;;;;2.33;2.33;;;5.10;99.90;;;;;;4173538;28;20041;-44
2022/04/14 03:47:00;;;;;;;3.60;3.28;;;5.10;99.90;;;;;;4173997;28;20477;-44
2022/04/14 03:49:03;;;;;;;3.47;3.05;;;5.10;99.90;;;;;;4161231;28;20043;-44
2022/04/14 03:51:05;;;;;;;4.18;3.88;;;5.00;99.90;;;;;;4162572;28;20049;-44
2022/04/14 03:53:07;;;;;;;3.97;3.83;;;4.80;99.90;;;;;;4161411;28;20413;-44
2022/04/14 03:55:09;;;;;;;4.47;4.28;;;4.50;99.90;;;;;;4168438;28;20041;-43
2022/04/14 03:57:11;;;;;;;4.57;4.28;;;4.50;99.90;;;;;;4171476;28;20140;-43
2022/04/14 03:59:14;;;;;;;5.80;5.60;;;4.50;99.90;;;;;;4161380;28;20046;-45
2022/04/14 04:01:16;;;;;;;;;;;4.40;99.90;;;;;;4161480;28;20045;-44
2022/04/14 04:03:18;;;;;;;3.72;3.63;;;4.30;99.90;;;;;;4161648;28;19971;-43
2022/04/14 04:05:20;;;;;;;6.05;3.47;;;4.20;99.90;;;;;;4161331;28;20112;-44
2022/04/14 04:07:22;;;;;;;4.78;4.50;;;4.10;99.90;;;;;;4163949;28;20593;-44
2022/04/14 04:09:26;;;;;;;5.50;5.20;;;4.20;99.90;;;;;;4164237;28;20436;-43
2022/04/14 04:11:28;;;;;;;4.50;3.42;;;4.20;99.90;;;;;;4165362;28;20056;-43
2022/04/14 04:13:30;;;;;;;3.25;3.15;;;4.20;99.90;;;;;;4169423;28;20049;-44
2022/04/14 04:15:33;;;;;;;4.85;3.40;;;4.30;99.90;;;;;;4171356;28;20091;-44
2022/04/14 04:17:35;;;;;;;3.80;3.70;;;4.40;99.90;;;;;;4161327;28;20029;-43
2022/04/14 04:19:38;;;;;;;2.92;2.83;;;4.40;99.90;;;;;;4160878;28;20516;-44
2022/04/14 04:21:40;;;;;;;3.13;3.03;;;4.40;99.90;;;;;;4160892;28;20519;-44
2022/04/14 04:23:45;;;;;;;3.70;3.58;;;4.50;99.90;;;;;;4160824;28;20049;-43
2022/04/14 04:25:59;;;;;;;4.25;3.92;;;4.50;99.90;;;;;;4161029;28;20550;-44
2022/04/14 04:28:40;;;;;;;3.63;3.30;;;4.50;99.90;;;;;;4169560;28;20538;-43
2022/04/14 04:30:48;;;;;;;3.22;3.13;;;4.60;99.90;;;;;;4165990;28;20045;-43
2022/04/14 04:32:50;;;;;;;3.53;3.35;;;4.50;99.90;;;;;;4172030;28;20038;-44
2022/04/14 04:34:52;;;;;;;3.53;3.33;;;4.50;99.90;;;;;;4173090;28;20094;-43
2022/04/14 04:36:55;;;;;;;3.33;3.30;;;4.50;99.90;;;;;;4166970;28;20481;-43
2022/04/14 04:38:58;;;;;;;3.65;3.50;;;4.50;99.90;;;;;;4161439;28;20049;-43
2022/04/14 04:41:00;;;;;;;3.70;3.60;;;4.40;99.90;;;;;;4160445;28;20048;-44
2022/04/14 04:43:02;;;;;;;4.38;3.95;;;4.40;99.90;;;;;;4164471;28;20041;-44
2022/04/14 04:45:05;;;;;;;7.78;3.70;;;4.30;99.90;;;;;;4172703;28;20029;-43
2022/04/14 04:47:07;;;;;;;5.15;4.95;;;4.30;99.90;;;;;;4160768;28;20041;-43
2022/04/14 04:49:09;;;;;;;3.70;3.63;;;4.30;99.90;;;;;;4159919;28;20046;-44
2022/04/14 04:51:11;;;;;;;3.45;3.35;;;4.40;99.90;;;;;;4175860;28;20045;-43
2022/04/14 04:53:15;;;;;;;4.70;4.38;;;4.40;99.90;;;;;;4175376;28;20064;-43
2022/04/14 04:55:17;;;;;;;6.57;4.45;;;4.20;99.90;;;;;;4165301;28;20075;-45
2022/04/14 04:57:19;;;;;;;4.45;4.35;;;4.10;99.90;;;;;;4164413;28;20045;-46
2022/04/14 04:59:21;;;;;;;4.78;4.65;;;4.00;99.90;;;;;;4160189;28;20049;-46
2022/04/14 05:01:23;;;;;;;5.25;5.05;;;4.00;99.90;;;;;;4160257;28;20037;-46
2022/04/14 05:03:25;;;;;;;4.05;3.95;;;4.00;99.90;;;;;;4160204;28;20042;-46
2022/04/14 05:05:27;;;;;;;3.60;3.60;;;4.10;99.90;;;;;;4160108;28;20037;-48
2022/04/14 05:07:30;;;;;;;3.63;3.50;;;4.20;99.90;;;;;;4163493;28;20104;-46
2022/04/14 05:09:32;;;;;;;3.08;3.05;;;4.30;99.90;;;;;;4160164;28;20037;-45
2022/04/14 05:11:34;;;;;;;3.92;3.67;;;4.40;99.90;;;;;;4165466;28;20040;-46
2022/04/14 05:13:36;;;;;;;3.28;3.08;;;4.50;99.90;;;;;;4163995;28;20037;-45
2022/04/14 05:15:38;;;;;;;4.10;3.53;;;4.50;99.90;;;;;;4159714;28;20045;-46
2022/04/14 05:17:41;;;;;;;3.95;3.63;;;4.60;99.90;;;;;;4164604;28;20310;-46
2022/04/14 05:19:43;;;;;;;3.00;2.90;;;4.70;99.90;;;;;;4174608;28;20132;-45
2022/04/14 05:21:47;;;;;;;5.88;3.20;;;4.70;99.90;;;;;;4163607;28;20490;-45
2022/04/14 05:23:49;;;;;;;2.88;2.50;;;4.70;99.90;;;;;;4160179;28;20445;-47
2022/04/14 05:25:51;;;;;;;4.80;4.10;;;4.70;99.90;;;;;;4159580;28;20069;-46
2022/04/14 05:27:53;;;;;;;4.70;4.60;;;4.70;99.90;;;;;;4159631;28;20041;-46
2022/04/14 05:29:55;;;;;;;5.47;5.15;;;4.70;99.90;;;;;;4160099;28;20080;-46
2022/04/14 05:31:57;;;;;;;8.25;7.75;;;4.60;99.90;;;;;;4160069;28;20396;-46
2022/04/14 05:33:59;;;;;;;7.03;6.55;;;4.50;99.90;;;;;;4159945;28;20052;-46
2022/04/14 05:36:01;;;;;;;7.55;7.25;;;4.50;99.90;;;;;;4160243;28;20051;-47
2022/04/14 05:38:05;;;;;;;6.78;6.43;;;4.40;99.90;;;;;;4159872;28;20111;-44
2022/04/14 05:40:08;;;;;;;3.40;3.30;;;4.40;99.90;;;;;;4169974;28;20041;-45
2022/04/14 05:42:10;;;;;;;5.32;5.00;;;4.50;99.90;;;;;;4160167;28;20038;-46
2022/04/14 05:44:12;;;;;;;4.15;3.92;;;4.60;99.90;;;;;;4169597;28;20079;-46
2022/04/14 05:46:14;;;;;;;6.60;3.00;;;4.70;99.90;;;;;;4160929;28;20113;-46
2022/04/14 05:48:18;;;;;;;4.47;3.83;;;4.70;99.90;;;;;;4159740;28;20072;-46
2022/04/14 05:50:20;;;;;;;4.88;4.68;;;4.80;99.90;;;;;;4167974;28;20048;-46
2022/04/14 05:52:22;;;;;;;4.28;4.13;;;4.80;99.90;;;;;;4167038;28;20056;-46
2022/04/14 05:54:24;;;;;;;3.85;3.35;;;4.90;99.90;;;;;;4159847;28;20493;-46
2022/04/14 05:56:26;;;;;;;3.00;3.00;;;4.90;99.90;;;;;;4159309;28;20378;-46
2022/04/14 05:58:28;;;;;;;4.50;4.13;;;5.10;99.90;;;;;;4159554;28;20038;-46
2022/04/14 06:00:35;;;;;;;5.53;5.43;;;5.20;99.90;;;;;;4160378;28;20060;-46
2022/04/14 06:02:37;;;;;;;4.75;4.35;;;5.30;99.90;;;;;;4159782;28;20044;-46
2022/04/14 06:04:39;;;;;;;3.70;3.70;;;5.40;99.90;;;;;;4159693;28;20037;-46
2022/04/14 06:06:41;;;;;;;4.50;3.90;;;5.60;99.90;;;;;;4159657;28;20409;-46
2022/04/14 06:08:43;;;;;;;2.88;2.88;;;5.80;99.90;;;;;;4162098;28;20075;-46
2022/04/14 06:10:45;;;;;;;2.88;2.85;;;5.90;99.90;;;;;;4160142;28;20516;-47
2022/04/14 06:12:48;;;;;;;2.85;2.75;;;6.10;99.90;;;;;;4161523;28;20416;-48
2022/04/14 06:14:50;;;;;;;3.25;2.30;;;6.20;99.90;;;;;;4163135;28;20041;-47
2022/04/14 06:16:52;;;;;;;1.95;1.85;;;6.30;99.90;;;;;;4175173;28;20416;-46
2022/04/14 06:18:54;;;;;;;4.15;2.60;;;6.30;99.90;;;;;;4163183;28;20045;-46
2022/04/14 06:20:56;;;;;;;4.57;4.47;;;6.50;99.90;;;;;;4159785;28;20046;-46
2022/04/14 06:22:59;;;;;;;3.05;2.95;;;6.50;99.90;;;;;;4159487;28;20072;-46
2022/04/14 06:25:02;;;;;;;3.95;3.85;;;6.60;99.90;;;;;;4159752;28;20069;-47
2022/04/14 06:27:05;;;;;;;2.10;2.00;;;6.80;99.90;;;;;;4159825;28;20037;-46
2022/04/14 06:29:08;;;;;;;2.35;2.35;;;6.90;99.90;;;;;;4159543;28;20056;-46
2022/04/14 06:31:10;;;;;;;3.15;3.15;;;7.10;99.90;;;;;;4159748;28;20396;-46
2022/04/14 06:33:13;;;;;;;3.55;2.00;;;7.20;99.90;;;;;;4159338;28;20488;-47
2022/04/14 06:35:15;;;;;;;3.33;2.25;;;7.40;99.90;;;;;;4165703;28;20033;-45
2022/04/14 06:37:17;;;;;;;2.58;2.10;;;7.50;99.90;;;;;;4159637;28;20033;-46
2022/04/14 06:39:19;;;;;;;2.05;1.95;;;7.70;99.90;;;;;;4162314;28;20401;-46
2022/04/14 06:41:21;;;;;;;2.92;2.05;;;7.90;99.90;;;;;;4162638;28;20159;-46
2022/04/14 06:43:24;;;;;;;2.22;2.13;;;7.90;99.90;;;;;;4162801;28;20033;-47
2022/04/14 06:45:26;;;;;;;2.13;2.10;;;8.00;99.90;;;;;;4162605;28;20083;-47
2022/04/14 06:47:28;;;;;;;3.05;2.05;;;8.20;99.90;;;;;;4162100;28;20037;-45
2022/04/14 06:49:31;;;;;;;2.33;2.33;;;8.40;99.90;;;;;;4163234;28;20077;-47
2022/04/14 06:51:33;;;;;;;2.75;2.67;;;8.70;99.90;;;;;;4162509;28;20045;-47
2022/04/14 06:53:35;;;;;;;2.45;2.00;;;9.00;99.90;;;;;;4162410;28;20120;-47
2022/04/14 06:55:37;;;;;;;1.45;1.35;;;9.20;99.90;;;;;;4162499;28;20582;-46
2022/04/14 06:57:39;;;;;;;6.50;1.95;;;9.40;99.90;;;;;;4162221;28;20041;-49
2022/04/14 06:59:41;;;;;;;3.40;1.60;;;9.50;99.90;;;;;;4162394;28;20045;-44
2022/04/14 07:01:43;;;;;;;4.00;2.78;;;9.60;99.90;;;;;;4162292;28;20041;-46
2022/04/14 07:03:46;;;;;;;3.40;2.17;;;9.70;99.90;;;;;;4161828;28;20072;-46
2022/04/14 07:05:48;;;;;;;3.70;1.83;;;9.80;99.90;;;;;;4162451;28;20048;-46
2022/04/14 07:07:51;;;;;;;5.57;1.98;;;9.90;99.90;;;;;;4162906;28;20444;-47
2022/04/14 07:09:53;;;;;;;;;;;10.00;99.90;;;;;;4162719;28;20041;-47
2022/04/14 07:11:56;;;;;;;2.28;1.27;;;10.00;99.90;;;;;;4168827;28;19990;-47
2022/04/14 07:13:59;;;;;;;1.50;1.40;;;10.20;99.90;;;;;;4162090;28;20053;-46
2022/04/14 07:16:01;;;;;;;5.53;1.55;;;10.50;99.90;;;;;;4161941;28;20041;-47
2022/04/14 07:18:03;;;;;;;2.78;1.70;;;10.60;99.90;;;;;;4169559;28;20451;-47
2022/04/14 07:20:09;;;;;;;4.20;1.80;;;10.80;99.90;;;;;;4162677;28;20041;-47
2022/04/14 07:22:17;;;;;;;3.40;1.85;;;10.90;99.90;;;;;;4161752;28;20033;-47
2022/04/14 07:24:19;;;;;;;4.90;1.80;;;11.00;99.90;;;;;;4162047;28;20091;-45
2022/04/14 07:26:21;;;;;;;1.75;1.40;;;11.30;99.90;;;;;;4161897;28;20452;-46
2022/04/14 07:28:23;;;;;;;2.63;1.65;;;11.60;99.90;;;;;;4161596;28;20037;-45
2022/04/14 07:30:29;;;;;;;1.40;1.30;;;11.90;99.90;;;;;;4162302;28;20041;-45
2022/04/14 07:32:39;;;;;;;4.43;1.50;;;12.00;99.90;;;;;;4165275;28;20041;-44
2022/04/14 07:34:41;;;;;;;3.20;1.40;;;12.20;99.90;;;;;;4161466;28;20037;-44
2022/04/14 07:36:44;;;;;;;4.18;1.60;;;12.50;99.90;;;;;;4161681;28;20045;-44
2022/04/14 07:38:46;;;;;;;3.00;1.75;;;12.60;99.90;;;;;;4161557;28;20041;-44
2022/04/14 07:40:48;;;;;;;1.27;1.25;;;12.60;99.90;;;;;;4161400;28;20154;-45
2022/04/14 07:42:51;;;;;;;2.88;2.65;;;12.60;99.90;;;;;;4162807;28;20065;-45
2022/04/14 07:44:53;;;;;;;1.35;1.20;;;12.60;99.90;;;;;;4167484;28;20512;-45
2022/04/14 07:46:55;;;;;;;1.20;1.10;;;12.70;99.90;;;;;;4161477;28;20091;-45
2022/04/14 07:48:57;;;;;;;1.70;1.63;;;12.80;99.90;;;;;;4160937;28;20053;-46
2022/04/14 07:51:02;;;;;;;1.40;1.30;;;12.90;99.90;;;;;;4167559;28;20100;-45
2022/04/14 07:53:04;;;;;;;1.33;1.10;;;12.90;99.90;;;;;;4161381;28;20045;-44
2022/04/14 07:55:07;;;;;;;1.30;1.20;;;12.80;99.70;;;;;;4176201;28;20059;-45
2022/04/14 07:57:09;;;;;;;1.10;1.10;;;12.90;99.90;;;;;;4165201;28;20041;-45
2022/04/14 07:59:11;;;;;;;5.45;1.73;;;13.00;99.90;;;;;;4161150;28;20448;-45
2022/04/14 08:01:13;;;;;;;3.90;1.15;;;13.10;99.90;;;;;;4161197;28;20528;-46
2022/04/14 08:03:17;;;;;;;1.52;1.52;;;13.20;99.90;;;;;;4161320;28;20034;-45
2022/04/14 08:05:20;;;;;;;1.67;1.38;;;13.70;99.90;;;;;;4161701;28;20029;-46
2022/04/14 08:07:22;;;;;;;1.40;1.40;;;14.00;99.90;;;;;;4161713;28;20042;-45
2022/04/14 08:09:24;;;;;;;1.55;1.15;;;14.10;98.40;;;;;;4161184;28;20067;-44
2022/04/14 08:11:26;;;;;;;1.45;1.45;;;14.20;97.40;;;;;;4165535;28;20033;-45
2022/04/14 08:13:30;;;;;;;1.10;1.10;;;14.30;97.50;;;;;;4161669;28;20092;-45
2022/04/14 08:15:33;;;;;;;1.35;1.25;;;14.50;95.20;;;;;;4160868;28;20555;-47
2022/04/14 08:17:36;;;;;;;1.17;1.17;;;14.60;98.60;;;;;;4165073;28;20086;-46
2022/04/14 08:19:40;;;;;;;1.85;1.55;;;15.00;98.60;;;;;;4167260;28;20045;-45
2022/04/14 08:21:42;;;;;;;3.95;1.83;;;15.00;97.20;;;;;;4160876;28;20044;-45
2022/04/14 08:23:44;;;;;;;1.67;1.58;;;15.20;98.70;;;;;;4160640;28;20038;-45
2022/04/14 08:25:46;;;;;;;1.02;1.02;;;15.30;97.60;;;;;;4161253;28;20036;-44
2022/04/14 08:28:08;;;;;;;2.10;1.13;;;15.40;96.60;;;;;;4168695;28;20049;-45
2022/04/14 08:30:10;;;;;;;1.20;1.20;;;15.70;96.30;;;;;;4160928;28;20041;-44
2022/04/14 08:32:12;;;;;;;1.83;1.40;;;15.70;95.90;;;;;;4160972;28;20065;-44
2022/04/14 08:34:15;;;;;;;1.20;1.10;;;15.60;97.50;;;;;;4160509;28;20493;-45
2022/04/14 08:36:17;;;;;;;1.67;1.00;;;15.60;95.60;;;;;;4161077;28;20087;-45
2022/04/14 08:38:20;;;;;;;1.10;1.10;;;16.00;94.40;;;;;;4160492;28;20042;-45
2022/04/14 08:40:22;;;;;;;0.90;0.90;;;16.30;93.00;;;;;;4160635;28;20046;-43
2022/04/14 08:42:39;;;;;;;1.85;1.00;;;16.70;90.70;;;;;;4160794;28;20044;-46
2022/04/14 08:44:49;;;;;;;0.80;0.80;;;17.10;88.90;;;;;;4166620;28;20099;-44
2022/04/14 08:46:52;;;;;;;0.90;0.90;;;17.50;87.00;;;;;;4160694;28;20459;-45
2022/04/14 08:49:02;;;;;;;0.80;0.80;;;17.60;81.90;;;;;;4160097;28;20049;-45
2022/04/14 08:51:05;;;;;;;1.52;0.85;;;17.70;80.80;;;;;;4173073;28;20048;-44
2022/04/14 08:53:09;;;;;;;0.80;0.80;;;17.90;83.50;;;;;;4177154;28;20234;-45
2022/04/14 08:55:14;;;;;;;0.80;0.80;;;18.40;83.50;;;;;;4160416;28;20316;-45
2022/04/14 08:57:17;;;;;;;1.50;0.80;;;18.50;76.20;;;;;;4173766;28;20068;-45
2022/04/14 08:59:19;;;;;;;1.05;1.05;;;18.60;77.00;;;;;;4160359;28;20120;-45
2022/04/14 09:01:25;;;;;;;1.80;0.90;;;18.70;77.10;;;;;;4160710;28;20045;-45
2022/04/14 09:03:28;;;;;;;0.73;0.73;;;19.00;75.80;;;;;;4160217;28;20041;-45
2022/04/14 09:05:31;;;;;;;1.33;0.70;;;19.10;75.80;;;;;;4160228;28;20132;-47
2022/04/14 09:07:33;;;;;;;1.13;0.70;;;19.00;73.60;;;;;;4164420;28;20056;-45
2022/04/14 09:09:38;;;;;;;0.80;0.80;;;18.90;71.70;;;;;;4172029;28;20041;-45
2022/04/14 09:11:40;;;;;;;0.75;0.75;;;19.20;79.30;;;;;;4163902;28;20048;-45
2022/04/14 09:13:44;;;;;;;0.80;0.80;;;19.60;74.60;;;;;;4160255;28;20304;-45
2022/04/14 09:15:47;;;;;;;0.80;0.80;;;19.70;72.80;;;;;;4160229;28;20045;-44
2022/04/14 09:17:49;;;;;;;0.80;0.80;;;19.70;72.00;;;;;;4165882;28;20090;-45
2022/04/14 09:19:51;;;;;;;1.08;0.70;;;19.70;70.10;;;;;;4163200;28;20539;-45
2022/04/14 09:22:07;;;;;;;1.45;0.70;;;19.90;73.30;;;;;;4160331;28;20084;-45
2022/04/14 09:24:09;;;;;;;0.80;0.80;;;20.20;72.80;;;;;;4160479;28;20633;-45
2022/04/14 09:26:14;;;;;;;2.58;1.73;;;20.40;72.60;;;;;;4160120;28;20034;-46
2022/04/14 09:28:18;;;;;;;0.70;0.70;;;20.40;69.70;;;;;;4160449;28;20048;-49
2022/04/14 09:30:20;;;;;;;0.70;0.70;;;20.10;72.10;;;;;;4159705;28;20099;-46
2022/04/14 09:32:45;;;;;;;0.80;0.80;;;20.20;72.00;;;;;;4161208;28;20463;-46
2022/04/14 09:34:51;;;;;;;1.45;0.70;;;20.30;69.40;;;;;;4174525;28;20045;-45
2022/04/14 09:37:09;;;;;;;0.70;0.70;;;20.50;69.70;;;;;;4159973;28;20039;-45
2022/04/14 09:39:13;;;;;;;0.90;0.90;;;20.30;67.30;;;;;;4160051;28;20049;-45
2022/04/14 09:41:41;;;;;;;0.80;0.77;;;20.40;67.80;;;;;;4160004;28;20044;-45
2022/04/14 09:43:54;;;;;;;1.05;0.88;;;20.50;67.10;;;;;;4164710;28;20044;-45
2022/04/14 09:45:56;;;;;;;;;;;20.40;66.60;;;;;;4160521;28;20071;-47
2022/04/14 09:48:12;;;;;;;0.75;0.75;;;20.50;66.80;;;;;;4159806;28;19975;-47
2022/04/14 09:50:40;;;;;;;1.85;0.73;;;20.70;68.50;;;;;;4167295;28;20047;-45
2022/04/14 09:53:08;;;;;;;2.90;1.27;;;20.90;65.70;;;;;;4160271;28;20049;-47
2022/04/14 09:55:12;;;;;;;1.38;0.70;;;21.20;66.50;;;;;;4159471;28;20440;-47
2022/04/14 09:57:14;;;;;;;1.50;1.30;;;21.00;65.80;;;;;;4159985;28;20053;-46
2022/04/14 09:59:18;;;;;;;1.08;0.75;;;20.90;67.00;;;;;;4158622;28;20029;-46
2022/04/14 10:01:20;;;;;;;0.80;0.80;;;20.90;64.90;;;;;;4159727;28;20040;-45
2022/04/14 10:03:25;;;;;;;0.98;0.60;;;21.10;66.30;;;;;;4160226;28;20125;-46
2022/04/14 10:05:35;;;;;;;0.60;0.60;;;21.20;64.10;;;;;;4159921;28;20046;-46
2022/04/14 10:07:57;;;;;;;1.00;0.70;;;21.30;69.50;;;;;;4161170;28;20037;-45
2022/04/14 10:09:59;;;;;;;0.90;0.90;;;21.60;65.60;;;;;;4162104;28;20483;-45
2022/04/14 10:12:03;;;;;;;0.75;0.75;;;21.50;65.20;;;;;;4164930;28;20684;-45
2022/04/14 10:14:13;;;;;;;0.70;0.63;;;21.80;67.20;;;;;;4161953;28;20099;-46
2022/04/14 10:16:20;;;;;;;0.70;0.70;;;22.00;67.90;;;;;;4167783;28;20041;-46
2022/04/14 10:18:22;;;;;;;1.52;0.68;;;22.40;65.20;;;;;;4166372;28;20549;-46
2022/04/14 10:20:25;;;;;;;0.60;0.60;;;22.00;62.90;;;;;;4164971;28;20034;-45
2022/04/14 10:22:28;;;;;;;0.60;0.60;;;22.00;64.60;;;;;;4160489;28;20440;-46
2022/04/14 10:24:33;;;;;;;0.60;0.60;;;22.00;64.10;;;;;;4166917;28;20040;-45
2022/04/14 10:26:35;;;;;;;0.80;0.80;;;22.10;64.90;;;;;;4166647;28;20508;-45
2022/04/14 10:28:38;;;;;;;0.70;0.60;;;22.00;62.80;;;;;;4175134;28;20072;-46
2022/04/14 10:30:48;;;;;;;0.70;0.70;;;22.10;63.00;;;;;;4161766;28;20634;-46
2022/04/14 10:32:58;;;;;;;1.38;0.63;;;21.90;62.00;;;;;;4160551;28;20368;-46
2022/04/14 10:35:03;;;;;;;0.60;0.60;;;21.80;62.30;;;;;;4171385;28;20041;-45
2022/04/14 10:37:08;;;;;;;0.60;0.60;;;21.90;62.70;;;;;;4165734;28;20041;-46
2022/04/14 10:39:12;;;;;;;0.50;0.50;;;21.90;62.80;;;;;;4164742;28;20096;-46
2022/04/14 10:41:26;;;;;;;0.50;0.50;;;22.20;66.00;;;;;;4165927;28;20121;-46
2022/04/14 10:43:29;;;;;;;1.63;0.60;;;22.60;61.70;;;;;;4164290;28;20037;-46
2022/04/14 10:45:50;;;;;;;0.50;0.50;;;22.70;66.10;;;;;;4166723;28;20107;-46
2022/04/14 10:47:54;;;;;;;0.60;0.60;;;22.50;63.40;;;;;;4161936;28;20037;-44
2022/04/14 10:49:56;;;;;;;0.50;0.50;;;22.50;62.20;;;;;;4166704;28;20454;-45
2022/04/14 10:52:26;;;;;;;0.50;0.50;;;22.50;63.60;;;;;;4162539;28;20055;-46